In Rescue
 
Open Full Screen Window  High Contrast Mode
Wind Gusting 00 knots
05
September 19, 2019 4:33 PM CDT
Weather Information
Wind Direction
  210 °
Wind Speed
  05 kt (6 mph)
Wind Gust
  00 kt (0 mph)
Altimeter
30.01 in
Visibility
10 SM
Temperature
27° C
81° F
Dewpoint
17° C
63° F
Humidity
54%
1hr Rain Fall
00.00 in.
24hr Rain Fall
00.05 in.
Sky Condition
Scattered @ 2,700 ft
VFR

METAR KAUM 192133Z AUTO 21005KT 10SM SCT027 27/17 A3001 RMK AO2

FAA Disclaimer: The data displayed is for advisory purposes only and is not to be used for flight planning or operations.